Time;durP1;ratioP1;P1;durP2;ratioP2;P2;SDS_P1;SDS_P2;PMS_P1;PMS_P2;Temp;Humidity;BMP_temperature;BMP_pressure;BME280_temperature;BME280_humidity;BME280_pressure;Samples;Min_cycle;Max_cycle;Signal;HPM_P1;HPM_P2
2023/01/09 00:01:25;;;;;;;;;;;24.70;95.20;;;;;;5072713;28;19912;-73
2023/01/09 00:03:51;;;;;;;;;;;24.80;95.00;;;;;;5073049;28;19908;-71
2023/01/09 00:06:18;;;;;;;;;;;24.90;94.90;;;;;;5068672;28;20031;-71
2023/01/09 00:08:45;;;;;;;;;;;25.00;95.00;;;;;;5072675;28;20335;-71
2023/01/09 00:11:11;;;;;;;;;;;25.20;94.80;;;;;;5072721;28;19951;-72
2023/01/09 00:13:38;;;;;;;;;;;25.20;94.30;;;;;;5072599;28;20416;-73
2023/01/09 00:16:05;;;;;;;;;;;25.20;94.00;;;;;;5072391;28;20007;-73
2023/01/09 00:18:32;;;;;;;;;;;25.30;94.10;;;;;;5072499;28;19908;-74
2023/01/09 00:21:00;;;;;;;;;;;25.40;94.20;;;;;;5072716;28;19954;-73
2023/01/09 00:23:26;;;;;;;;;;;25.60;93.90;;;;;;5072439;28;19909;-73
2023/01/09 00:26:03;;;;;;;;;;;25.80;92.90;;;;;;5072148;28;19908;-73
2023/01/09 00:28:30;;;;;;;;;;;25.80;91.90;;;;;;5072672;28;19908;-72
2023/01/09 00:30:57;;;;;;;;;;;25.90;92.60;;;;;;5072836;28;19908;-70
2023/01/09 00:33:34;;;;;;;;;;;25.90;92.50;;;;;;5071163;28;19920;-73
2023/01/09 00:36:01;;;;;;;;;;;26.10;92.10;;;;;;5071951;28;19921;-71
2023/01/09 00:38:28;;;;;;;;;;;26.20;92.20;;;;;;5072648;28;19920;-70
2023/01/09 00:40:54;;;;;;;;;;;26.20;92.30;;;;;;5070992;28;20262;-72
2023/01/09 00:43:23;;;;;;;;;;;26.40;92.10;;;;;;5074791;28;19909;-71
2023/01/09 00:45:50;;;;;;;;;;;26.50;92.00;;;;;;5076188;28;20280;-73
2023/01/09 00:48:25;;;;;;;;;;;26.70;92.00;;;;;;5076494;28;19916;-72
2023/01/09 00:50:54;;;;;;;;;;;26.90;91.60;;;;;;5075182;28;19909;-71
2023/01/09 00:53:22;;;;;;;;;;;27.00;91.60;;;;;;5076464;28;19924;-73
2023/01/09 00:55:50;;;;;;;;;;;27.20;91.70;;;;;;5076064;28;19909;-72
2023/01/09 00:58:17;;;;;;;;;;;27.20;91.50;;;;;;5075921;28;20360;-73
2023/01/09 01:00:43;;;;;;;;;;;27.30;91.00;;;;;;5076014;28;20320;-73
2023/01/09 01:03:10;;;;;;;;;;;27.40;90.90;;;;;;5076236;28;20380;-72
2023/01/09 01:08:21;;;;;;;;;;;27.70;90.40;;;;;;5076099;28;19958;-73
2023/01/09 01:10:48;;;;;;;;;;;27.70;90.70;;;;;;5076276;28;19916;-73
2023/01/09 01:13:15;;;;;;;;;;;27.70;91.60;;;;;;5075741;28;20369;-74
2023/01/09 01:15:42;;;;;;;;;;;27.90;91.70;;;;;;5075562;28;19999;-74
2023/01/09 01:18:10;;;;;;;;;;;28.00;91.10;;;;;;5075314;28;20007;-74
2023/01/09 01:20:39;;;;;;;;;;;28.30;91.00;;;;;;5075888;28;19908;-74
2023/01/09 01:23:05;;;;;;;;;;;28.20;91.00;;;;;;5075885;28;19908;-74
2023/01/09 01:25:32;;;;;;;;;;;28.10;90.70;;;;;;5074640;28;19912;-75
2023/01/09 01:27:58;;;;;;;;;;;28.10;90.80;;;;;;5075432;28;19913;-73
2023/01/09 01:30:26;;;;;;;;;;;28.10;91.20;;;;;;5075548;28;19909;-73
2023/01/09 01:32:52;;;;;;;;;;;28.10;90.80;;;;;;5075535;28;20388;-75
2023/01/09 01:35:19;;;;;;;;;;;28.00;90.60;;;;;;5075282;28;19961;-74
2023/01/09 01:37:48;;;;;;;;;;;28.00;90.40;;;;;;5074987;28;20338;-73
2023/01/09 01:40:15;;;;;;;;;;;28.10;90.80;;;;;;5075284;28;19991;-74
2023/01/09 01:42:45;;;;;;;;;;;28.20;91.10;;;;;;5075388;28;19920;-74
2023/01/09 01:45:14;;;;;;;;;;;28.20;90.40;;;;;;5075373;28;20357;-74
2023/01/09 01:47:50;;;;;;;;;;;28.30;90.00;;;;;;5075280;28;19962;-73
2023/01/09 01:50:34;;;;;;;;;;;28.40;90.00;;;;;;5075220;28;19979;-74
2023/01/09 01:53:06;;;;;;;;;;;28.70;90.40;;;;;;5074299;28;19939;-73
2023/01/09 01:55:34;;;;;;;;;;;28.80;89.40;;;;;;5075000;28;19908;-74
2023/01/09 01:58:03;;;;;;;;;;;29.10;89.80;;;;;;5075144;28;20458;-74
2023/01/09 02:00:36;;;;;;;;;;;29.10;87.90;;;;;;5075022;28;20050;-73
2023/01/09 02:03:03;;;;;;;;;;;29.10;88.00;;;;;;5074973;28;19990;-73
2023/01/09 02:05:30;;;;;;;;;;;29.10;87.60;;;;;;5071982;28;19924;-74
2023/01/09 02:07:57;;;;;;;;;;;29.10;89.30;;;;;;5072817;28;19912;-73
2023/01/09 02:10:24;;;;;;;;;;;28.90;88.90;;;;;;5074898;28;19913;-73
2023/01/09 02:12:50;;;;;;;;;;;28.80;88.80;;;;;;5074847;28;19916;-73
2023/01/09 02:15:18;;;;;;;;;;;28.90;90.00;;;;;;5074882;28;20373;-73
2023/01/09 02:18:04;;;;;;;;;;;29.20;89.10;;;;;;5073483;28;19908;-73
2023/01/09 02:20:35;;;;;;;;;;;29.20;88.50;;;;;;5074783;28;19909;-74
2023/01/09 02:23:05;;;;;;;;;;;29.40;87.60;;;;;;5074781;28;19915;-73
2023/01/09 02:25:32;;;;;;;;;;;29.70;88.20;;;;;;5074516;28;19919;-74
2023/01/09 02:28:12;;;;;;;;;;;29.60;88.10;;;;;;5074581;28;19905;-74
2023/01/09 02:30:45;;;;;;;;;;;29.80;88.00;;;;;;5074566;28;19909;-74
2023/01/09 02:33:19;;;;;;;;;;;30.00;88.40;;;;;;5074529;28;19916;-73
2023/01/09 02:36:01;;;;;;;;;;;29.80;86.70;;;;;;5073905;28;19916;-74
2023/01/09 02:38:35;;;;;;;;;;;29.50;88.50;;;;;;5074535;28;19952;-73
2023/01/09 02:41:05;;;;;;;;;;;29.80;86.80;;;;;;5074201;28;19961;-74
2023/01/09 02:43:32;;;;;;;;;;;30.00;87.70;;;;;;5074230;28;19915;-74
2023/01/09 02:45:59;;;;;;;;;;;30.10;86.10;;;;;;5073965;28;19993;-73
2023/01/09 02:48:25;;;;;;;;;;;30.30;85.00;;;;;;5073907;28;19915;-73
2023/01/09 02:51:05;;;;;;;;;;;30.10;86.40;;;;;;5074049;28;20006;-74
2023/01/09 02:53:34;;;;;;;;;;;30.10;87.30;;;;;;5073606;28;19927;-74
2023/01/09 02:56:19;;;;;;;;;;;30.40;85.90;;;;;;5074027;28;19961;-73
2023/01/09 02:59:00;;;;;;;;;;;30.60;86.00;;;;;;5073652;28;19909;-72
2023/01/09 03:01:46;;;;;;;;;;;30.60;85.10;;;;;;5073872;28;20548;-73
2023/01/09 03:04:23;;;;;;;;;;;30.30;86.60;;;;;;5073691;28;19915;-73
2023/01/09 03:06:58;;;;;;;;;;;30.60;86.70;;;;;;5072794;28;19948;-74
2023/01/09 03:09:26;;;;;;;;;;;31.40;84.30;;;;;;5073137;28;19920;-73
2023/01/09 03:11:57;;;;;;;;;;;32.20;83.50;;;;;;5073431;28;19919;-73
2023/01/09 03:14:25;;;;;;;;;;;32.50;81.50;;;;;;5072188;28;19918;-73
2023/01/09 03:16:55;;;;;;;;;;;33.30;78.70;;;;;;5073487;28;19908;-73
2023/01/09 03:19:23;;;;;;;;;;;33.90;78.00;;;;;;5073430;28;20063;-73
2023/01/09 03:21:50;;;;;;;;;;;34.50;75.50;;;;;;5072915;28;19915;-74
2023/01/09 03:24:17;;;;;;;;;;;34.70;76.10;;;;;;5076087;28;20255;-75
2023/01/09 03:26:43;;;;;;;;;;;35.80;75.20;;;;;;5078577;28;19908;-73
2023/01/09 03:29:10;;;;;;;;;;;36.80;71.50;;;;;;5083140;28;20270;-70
2023/01/09 03:31:37;;;;;;;;;;;37.20;69.30;;;;;;5075649;28;19909;-73
2023/01/09 03:34:04;;;;;;;;;;;37.60;69.10;;;;;;5072508;28;19916;-75
2023/01/09 03:36:30;;;;;;;;;;;37.20;69.20;;;;;;5073084;28;19921;-74
2023/01/09 03:38:57;;;;;;;;;;;36.80;69.30;;;;;;5073140;28;19909;-73
2023/01/09 03:41:24;;;;;;;;;;;36.40;68.60;;;;;;5072785;28;20397;-74
2023/01/09 03:43:50;;;;;;;;;;;36.30;69.50;;;;;;5073335;28;20354;-73
2023/01/09 03:46:17;;;;;;;;;;;37.20;69.90;;;;;;5072926;28;19908;-73
2023/01/09 03:48:44;;;;;;;;;;;38.60;67.40;;;;;;5072953;28;19977;-72
2023/01/09 03:51:10;;;;;;;;;;;39.10;63.90;;;;;;5071659;28;19931;-73
2023/01/09 03:53:37;;;;;;;;;;;39.70;62.50;;;;;;5072569;28;20142;-71
2023/01/09 03:56:04;;;;;;;;;;;39.30;62.30;;;;;;5072921;28;19915;-73
2023/01/09 03:58:30;;;;;;;;;;;39.50;62.60;;;;;;5073022;28;19916;-74
2023/01/09 04:00:58;;;;;;;;;;;39.00;61.80;;;;;;5072948;28;19912;-72
2023/01/09 04:03:25;;;;;;;;;;;39.30;61.10;;;;;;5072639;28;19916;-72
2023/01/09 04:05:52;;;;;;;;;;;39.90;61.50;;;;;;5072453;28;19991;-72
2023/01/09 04:08:18;;;;;;;;;;;40.30;60.70;;;;;;5069177;28;19916;-73
2023/01/09 04:10:46;;;;;;;;;;;40.10;61.00;;;;;;5072861;28;19908;-74
2023/01/09 04:13:13;;;;;;;;;;;41.10;60.00;;;;;;5072617;28;19923;-74
2023/01/09 04:15:39;;;;;;;;;;;41.00;60.10;;;;;;5072584;28;19909;-73
2023/01/09 04:18:06;;;;;;;;;;;40.70;59.10;;;;;;5071729;28;19915;-75
2023/01/09 04:20:33;;;;;;;;;;;41.10;59.10;;;;;;5072940;28;19908;-75
2023/01/09 04:23:00;;;;;;;;;;;40.70;59.90;;;;;;5072662;28;19909;-74
2023/01/09 04:25:26;;;;;;;;;;;40.60;59.60;;;;;;5072371;28;19909;-72
2023/01/09 04:27:53;;;;;;;;;;;40.30;60.80;;;;;;5072498;28;20003;-72
2023/01/09 04:30:20;;;;;;;;;;;40.30;59.50;;;;;;5072733;28;20346;-73
2023/01/09 04:32:46;;;;;;;;;;;40.30;58.50;;;;;;5072528;28;20273;-73
2023/01/09 04:35:13;;;;;;;;;;;40.00;59.70;;;;;;5072507;28;19912;-75
2023/01/09 04:37:40;;;;;;;;;;;40.70;59.30;;;;;;5072322;28;19919;-72
2023/01/09 04:40:10;;;;;;;;;;;40.90;58.40;;;;;;5072690;28;19931;-72
2023/01/09 04:42:38;;;;;;;;;;;41.00;58.80;;;;;;5072611;28;19999;-72
2023/01/09 04:45:05;;;;;;;;;;;40.20;58.90;;;;;;5071459;28;20280;-70
2023/01/09 04:47:32;;;;;;;;;;;40.50;58.60;;;;;;5072138;28;19908;-72
2023/01/09 04:49:59;;;;;;;;;;;40.80;58.80;;;;;;5072418;28;19934;-71
2023/01/09 04:52:26;;;;;;;;;;;41.40;58.00;;;;;;5072362;28;19916;-71
2023/01/09 04:54:52;;;;;;;;;;;41.70;57.90;;;;;;5072170;28;19991;-72
2023/01/09 04:57:19;;;;;;;;;;;42.00;57.20;;;;;;5072111;28;20011;-72
2023/01/09 04:59:46;;;;;;;;;;;41.00;57.20;;;;;;5072168;28;20376;-72
2023/01/09 05:02:12;;;;;;;;;;;41.30;57.30;;;;;;5072288;28;19908;-72
2023/01/09 05:04:39;;;;;;;;;;;41.90;56.20;;;;;;5072067;28;19952;-72
2023/01/09 05:07:06;;;;;;;;;;;41.40;56.80;;;;;;5072338;28;19916;-71
2023/01/09 05:09:33;;;;;;;;;;;41.60;57.40;;;;;;5072233;28;20276;-72
2023/01/09 05:11:59;;;;;;;;;;;41.70;56.40;;;;;;5072131;28;19955;-72
2023/01/09 05:14:26;;;;;;;;;;;42.20;57.20;;;;;;5072004;28;19915;-72
2023/01/09 05:16:53;;;;;;;;;;;42.50;55.90;;;;;;5071830;28;19912;-73
2023/01/09 05:19:20;;;;;;;;;;;41.80;56.80;;;;;;5072241;28;19916;-72
2023/01/09 05:21:46;;;;;;;;;;;41.40;56.80;;;;;;5072259;28;20265;-72
2023/01/09 05:24:13;;;;;;;;;;;40.80;57.70;;;;;;5072261;28;19909;-72
2023/01/09 05:26:40;;;;;;;;;;;39.30;59.30;;;;;;5071950;28;20098;-72
2023/01/09 05:29:06;;;;;;;;;;;39.30;58.60;;;;;;5073697;28;19962;-71
2023/01/09 05:31:33;;;;;;;;;;;40.00;57.50;;;;;;5075454;28;19919;-74
2023/01/09 05:34:00;;;;;;;;;;;40.70;57.70;;;;;;5075236;28;20395;-73
2023/01/09 05:36:27;;;;;;;;;;;39.10;58.80;;;;;;5075309;28;20334;-72
2023/01/09 05:38:53;;;;;;;;;;;38.40;60.10;;;;;;5075798;28;20341;-73
2023/01/09 05:41:20;;;;;;;;;;;39.00;59.70;;;;;;5075763;28;20284;-72
2023/01/09 05:43:47;;;;;;;;;;;39.60;59.20;;;;;;5075925;28;19912;-71
2023/01/09 05:46:13;;;;;;;;;;;39.50;58.80;;;;;;5075253;28;20349;-72
2023/01/09 05:48:40;;;;;;;;;;;39.10;60.10;;;;;;5075367;28;19916;-72
2023/01/09 05:51:07;;;;;;;;;;;37.50;61.60;;;;;;5075442;28;19916;-72
2023/01/09 05:53:33;;;;;;;;;;;38.10;60.80;;;;;;5075241;28;20284;-71
2023/01/09 05:56:00;;;;;;;;;;;38.20;60.40;;;;;;5075126;28;19908;-72
2023/01/09 05:58:26;;;;;;;;;;;38.30;59.00;;;;;;5074951;28;19905;-70
2023/01/09 06:00:53;;;;;;;;;;;38.00;59.50;;;;;;5075007;28;19916;-71
2023/01/09 06:03:20;;;;;;;;;;;37.70;60.30;;;;;;5073866;28;19912;-71
2023/01/09 06:05:47;;;;;;;;;;;37.00;60.90;;;;;;5074822;28;20281;-71
2023/01/09 06:08:13;;;;;;;;;;;36.60;61.70;;;;;;5071199;28;19931;-72
2023/01/09 06:10:40;;;;;;;;;;;35.90;62.70;;;;;;5075017;28;19918;-71
2023/01/09 06:13:06;;;;;;;;;;;34.50;65.30;;;;;;5074891;28;19967;-73
2023/01/09 06:15:33;;;;;;;;;;;33.90;66.40;;;;;;5074748;28;19916;-73
2023/01/09 06:18:00;;;;;;;;;;;32.60;69.00;;;;;;5074960;28;19994;-74
2023/01/09 06:20:26;;;;;;;;;;;31.70;70.80;;;;;;5075239;28;20015;-75
2023/01/09 06:22:53;;;;;;;;;;;31.60;72.10;;;;;;5074879;28;19995;-75
2023/01/09 06:25:20;;;;;;;;;;;31.60;72.00;;;;;;5075014;28;19995;-74
2023/01/09 06:27:46;;;;;;;;;;;31.60;71.90;;;;;;5070293;28;19909;-73
2023/01/09 06:30:13;;;;;;;;;;;31.70;71.70;;;;;;5062379;28;19919;-73
2023/01/09 06:32:40;;;;;;;;;;;31.60;69.80;;;;;;5078509;28;20010;-72
2023/01/09 06:35:07;;;;;;;;;;;31.50;70.90;;;;;;5074581;28;19940;-71
2023/01/09 06:37:33;;;;;;;;;;;31.40;70.40;;;;;;5074138;28;19921;-70
2023/01/09 06:40:00;;;;;;;;;;;31.30;70.20;;;;;;5073040;28;19934;-71
2023/01/09 06:42:26;;;;;;;;;;;31.30;70.00;;;;;;5062817;28;20244;-72
2023/01/09 06:44:53;;;;;;;;;;;31.10;71.30;;;;;;5053223;28;20354;-73
2023/01/09 06:47:20;;;;;;;;;;;31.00;73.00;;;;;;5052957;28;19960;-72
2023/01/09 06:49:46;;;;;;;;;;;30.60;74.80;;;;;;5054328;28;19908;-71
2023/01/09 06:52:13;;;;;;;;;;;30.60;74.90;;;;;;5052814;28;19962;-71
2023/01/09 06:54:40;;;;;;;;;;;30.60;75.60;;;;;;5054165;28;19916;-71
2023/01/09 06:57:07;;;;;;;;;;;30.50;74.20;;;;;;5053991;28;19912;-71
2023/01/09 06:59:33;;;;;;;;;;;30.60;73.60;;;;;;5053735;28;19961;-71
2023/01/09 07:02:00;;;;;;;;;;;30.60;74.00;;;;;;5053901;28;19970;-70
2023/01/09 07:04:27;;;;;;;;;;;30.50;74.70;;;;;;5053645;28;19916;-70
2023/01/09 07:06:53;;;;;;;;;;;30.50;74.90;;;;;;5053800;28;19920;-70
2023/01/09 07:09:20;;;;;;;;;;;30.40;75.40;;;;;;5053996;28;19909;-71
2023/01/09 07:11:47;;;;;;;;;;;30.30;75.00;;;;;;5053918;28;20353;-71
2023/01/09 07:14:13;;;;;;;;;;;30.30;74.20;;;;;;5057916;28;19916;-70
2023/01/09 07:16:40;;;;;;;;;;;30.00;74.40;;;;;;5064883;28;19931;-70
2023/01/09 07:19:06;;;;;;;;;;;30.00;74.70;;;;;;5058246;28;19997;-72
2023/01/09 07:21:33;;;;;;;;;;;29.50;75.00;;;;;;5054025;28;19999;-71
2023/01/09 07:24:00;;;;;;;;;;;29.50;75.70;;;;;;5054186;28;19924;-72
2023/01/09 07:26:26;;;;;;;;;;;29.20;77.80;;;;;;5053511;28;19920;-72
2023/01/09 07:28:53;;;;;;;;;;;29.30;76.50;;;;;;5053609;28;19909;-72
2023/01/09 07:31:20;;;;;;;;;;;29.20;75.90;;;;;;5053595;28;19909;-71
2023/01/09 07:33:46;;;;;;;;;;;29.20;76.90;;;;;;5053480;28;20017;-72
2023/01/09 07:36:13;;;;;;;;;;;28.90;77.70;;;;;;5052945;28;19970;-74
2023/01/09 07:38:40;;;;;;;;;;;28.90;76.80;;;;;;5053070;28;20289;-72
2023/01/09 07:41:06;;;;;;;;;;;28.70;77.30;;;;;;5053134;28;19909;-70
2023/01/09 07:43:33;;;;;;;;;;;28.70;77.60;;;;;;5051913;28;20388;-71
2023/01/09 07:46:00;;;;;;;;;;;28.40;77.60;;;;;;5053202;28;19909;-71
2023/01/09 07:48:26;;;;;;;;;;;28.40;77.80;;;;;;5053029;28;19909;-70
2023/01/09 07:50:53;;;;;;;;;;;28.30;78.30;;;;;;5053017;28;19908;-70
2023/01/09 07:53:19;;;;;;;;;;;28.20;79.30;;;;;;5051767;28;19921;-71
2023/01/09 07:55:46;;;;;;;;;;;28.20;80.20;;;;;;5052713;28;19909;-72
2023/01/09 07:58:13;;;;;;;;;;;27.90;82.10;;;;;;5052938;28;20380;-70
2023/01/09 08:00:39;;;;;;;;;;;27.80;79.90;;;;;;5052966;28;20381;-70
2023/01/09 08:03:06;;;;;;;;;;;27.70;80.90;;;;;;5052636;28;19915;-71
2023/01/09 08:05:33;;;;;;;;;;;27.60;81.10;;;;;;5052769;28;19956;-72
2023/01/09 08:08:00;;;;;;;;;;;27.30;82.70;;;;;;5052790;28;19912;-73
2023/01/09 08:10:27;;;;;;;;;;;27.10;85.10;;;;;;5053077;28;19955;-70
2023/01/09 08:12:54;;;;;;;;;;;26.80;86.70;;;;;;5052942;28;19924;-72
2023/01/09 08:15:20;;;;;;;;;;;26.50;86.00;;;;;;5053233;28;19909;-70
2023/01/09 08:17:47;;;;;;;;;;;26.40;85.30;;;;;;5052613;28;20007;-71
2023/01/09 08:20:15;;;;;;;;;;;26.40;86.50;;;;;;5052795;28;20434;-73
2023/01/09 08:22:41;;;;;;;;;;;26.40;87.30;;;;;;5054993;28;19909;-72
2023/01/09 08:25:08;;;;;;;;;;;26.20;87.80;;;;;;5054707;28;19913;-71
2023/01/09 08:27:35;;;;;;;;;;;26.20;88.40;;;;;;5053765;28;20051;-70
2023/01/09 08:30:01;;;;;;;;;;;26.10;85.30;;;;;;5057044;28;19956;-71
2023/01/09 08:32:28;;;;;;;;;;;26.00;86.00;;;;;;5054050;28;19924;-71
2023/01/09 08:34:55;;;;;;;;;;;25.90;86.20;;;;;;5053551;28;19916;-72
2023/01/09 08:37:21;;;;;;;;;;;26.00;86.70;;;;;;5052888;28;19975;-71
2023/01/09 08:39:48;;;;;;;;;;;25.90;87.90;;;;;;5053072;28;19987;-71
2023/01/09 08:47:44;;;;;;;;;;;25.70;87.10;;;;;;5052727;28;19939;-74
2023/01/09 08:50:12;;;;;;;;;;;25.60;88.40;;;;;;5067564;28;19912;-71
2023/01/09 08:52:38;;;;;;;;;;;25.50;89.10;;;;;;5073064;28;19926;-74
2023/01/09 08:55:05;;;;;;;;;;;25.40;89.40;;;;;;5072910;28;20389;-74
2023/01/09 08:57:32;;;;;;;;;;;25.30;89.40;;;;;;5072833;28;19951;-74
2023/01/09 08:59:58;;;;;;;;;;;25.20;89.90;;;;;;5072648;28;20258;-73
2023/01/09 09:02:25;;;;;;;;;;;25.10;90.30;;;;;;5071288;28;20380;-73
2023/01/09 09:04:52;;;;;;;;;;;25.00;90.70;;;;;;5075712;28;19909;-70
2023/01/09 09:07:25;;;;;;;;;;;24.90;90.80;;;;;;5076082;28;19908;-71
2023/01/09 09:09:53;;;;;;;;;;;24.80;90.90;;;;;;5076300;28;20414;-72
2023/01/09 09:12:19;;;;;;;;;;;24.70;91.10;;;;;;5075846;28;20011;-74
2023/01/09 09:17:32;;;;;;;;;;;24.50;91.60;;;;;;5076033;28;19995;-70
2023/01/09 09:19:59;;;;;;;;;;;24.50;91.80;;;;;;5076338;28;20025;-72
2023/01/09 09:22:26;;;;;;;;;;;24.40;92.10;;;;;;5076205;28;19916;-71
2023/01/09 09:24:53;;;;;;;;;;;24.40;92.10;;;;;;5075768;28;19916;-73
2023/01/09 09:27:19;;;;;;;;;;;24.30;92.30;;;;;;5076004;28;19916;-74
2023/01/09 09:29:46;;;;;;;;;;;24.30;92.90;;;;;;5076067;28;19908;-73
2023/01/09 09:32:13;;;;;;;;;;;24.30;92.90;;;;;;5075936;28;19915;-74
2023/01/09 09:34:39;;;;;;;;;;;24.20;93.20;;;;;;5075816;28;19909;-74
2023/01/09 09:37:06;;;;;;;;;;;24.20;93.30;;;;;;5075692;28;20018;-74
2023/01/09 09:39:33;;;;;;;;;;;24.10;93.40;;;;;;5075944;28;19908;-75
2023/01/09 09:45:16;;;;;;;;;;;24.10;93.90;;;;;;5075417;28;19915;-74
2023/01/09 09:47:49;;;;;;;;;;;24.00;94.10;;;;;;5075682;28;19999;-74
2023/01/09 09:50:42;;;;;;;;;;;23.80;94.30;;;;;;5075577;28;19909;-73
2023/01/09 09:53:14;;;;;;;;;;;23.80;94.30;;;;;;5075453;28;20254;-74
2023/01/09 09:55:41;;;;;;;;;;;23.70;94.30;;;;;;5075377;28;20300;-74
2023/01/09 09:58:27;;;;;;;;;;;23.70;94.50;;;;;;5075024;28;19919;-74
2023/01/09 10:00:55;;;;;;;;;;;23.60;94.70;;;;;;5075329;28;19955;-73
2023/01/09 10:03:32;;;;;;;;;;;23.60;94.80;;;;;;5075512;28;20273;-74
2023/01/09 10:06:00;;;;;;;;;;;23.60;95.00;;;;;;5075237;28;19934;-73
2023/01/09 10:08:50;;;;;;;;;;;23.60;95.50;;;;;;5075112;28;19909;-73
2023/01/09 10:11:21;;;;;;;;;;;23.50;95.50;;;;;;5074934;28;19908;-73
2023/01/09 10:14:06;;;;;;;;;;;23.50;96.10;;;;;;5073757;28;20284;-72
2023/01/09 10:16:36;;;;;;;;;;;23.50;96.30;;;;;;5074850;28;20361;-71
2023/01/09 10:19:28;;;;;;;;;;;23.40;96.20;;;;;;5073711;28;19915;-73
2023/01/09 10:21:55;;;;;;;;;;;23.40;96.60;;;;;;5074789;28;20408;-74
2023/01/09 10:24:31;;;;;;;;;;;23.40;96.70;;;;;;5073207;28;19909;-71
2023/01/09 10:27:01;;;;;;;;;;;23.30;96.80;;;;;;5074766;28;20285;-73
2023/01/09 10:29:54;;;;;;;;;;;23.20;97.20;;;;;;5074855;28;19975;-75
2023/01/09 10:32:27;;;;;;;;;;;23.20;97.60;;;;;;5073624;28;19915;-74
2023/01/09 10:35:05;;;;;;;;;;;23.10;97.90;;;;;;5073566;28;19951;-73
2023/01/09 10:37:43;;;;;;;;;;;23.10;98.10;;;;;;5074297;28;19952;-73
2023/01/09 10:40:16;;;;;;;;;;;23.10;98.20;;;;;;5074588;28;19909;-71
2023/01/09 10:43:01;;;;;;;;;;;23.00;98.50;;;;;;5074743;28;19908;-73
2023/01/09 10:45:29;;;;;;;;;;;23.00;98.90;;;;;;5073412;28;20007;-74
2023/01/09 10:48:01;;;;;;;;;;;23.00;99.10;;;;;;5073027;28;19934;-74
2023/01/09 10:50:31;;;;;;;;;;;22.90;99.50;;;;;;5070508;28;19936;-73
2023/01/09 10:52:58;;;;;;;;;;;22.90;99.60;;;;;;5074348;28;19923;-73
2023/01/09 10:55:54;;;;;;;;;;;22.80;99.90;;;;;;5075103;28;20258;-73
2023/01/09 10:58:21;;;;;;;;;;;22.80;99.90;;;;;;5075237;28;20365;-72
2023/01/09 11:00:49;;;;;;;;;;;22.80;99.90;;;;;;5084265;28;20086;-71
2023/01/09 11:03:17;;;;;;;;;;;22.70;99.90;;;;;;5085510;28;19908;-73
2023/01/09 11:05:48;;;;;;;;;;;22.70;99.90;;;;;;5076000;28;19908;-72
2023/01/09 11:08:23;;;;;;;;;;;22.70;99.90;;;;;;5074092;28;19998;-74
2023/01/09 11:10:59;;;;;;;;;;;22.60;99.90;;;;;;5073787;28;19943;-73
2023/01/09 11:13:25;;;;;;;;;;;22.60;99.90;;;;;;5073595;28;19927;-71
2023/01/09 11:15:58;;;;;;;;;;;22.60;99.90;;;;;;5073733;28;19908;-71
2023/01/09 11:18:25;;;;;;;;;;;22.50;99.90;;;;;;5073817;28;20045;-71
2023/01/09 11:20:52;;;;;;;;;;;22.50;99.90;;;;;;5073651;28;19940;-71
2023/01/09 11:23:25;;;;;;;;;;;22.40;99.90;;;;;;5073454;28;19994;-71
2023/01/09 11:25:56;;;;;;;;;;;22.40;99.90;;;;;;5067368;28;19913;-71
2023/01/09 11:28:23;;;;;;;;;;;22.40;99.90;;;;;;5062837;28;20365;-71
2023/01/09 11:30:54;;;;;;;;;;;22.40;99.90;;;;;;5053590;28;19913;-73
2023/01/09 11:33:23;;;;;;;;;;;22.30;99.90;;;;;;5052974;28;20047;-74
2023/01/09 11:35:56;;;;;;;;;;;22.30;99.90;;;;;;5051727;28;19917;-71
2023/01/09 11:38:22;;;;;;;;;;;22.30;99.90;;;;;;5053267;28;19913;-73
2023/01/09 11:40:50;;;;;;;;;;;22.30;99.90;;;;;;5052097;28;19930;-73
2023/01/09 11:43:24;;;;;;;;;;;22.20;99.90;;;;;;5053328;28;19916;-71
2023/01/09 11:45:55;;;;;;;;;;;22.20;99.90;;;;;;5053167;28;19996;-71
2023/01/09 11:48:28;;;;;;;;;;;22.20;99.90;;;;;;5053229;28;19931;-71
2023/01/09 11:50:56;;;;;;;;;;;22.10;99.90;;;;;;5051926;28;19909;-69
2023/01/09 11:53:23;;;;;;;;;;;22.10;99.90;;;;;;5053122;28;19940;-72
2023/01/09 11:56:03;;;;;;;;;;;22.10;99.90;;;;;;5052972;28;19936;-71
2023/01/09 11:58:34;;;;;;;;;;;22.10;99.90;;;;;;5051796;28;19952;-70
2023/01/09 12:01:13;;;;;;;;;;;22.10;99.90;;;;;;5053282;28;19931;-70
2023/01/09 12:03:40;;;;;;;;;;;22.10;99.90;;;;;;5051747;28;19916;-73
2023/01/09 12:06:12;;;;;;;;;;;22.10;99.90;;;;;;5052255;28;20465;-71
2023/01/09 12:08:50;;;;;;;;;;;22.00;99.90;;;;;;5057130;28;20364;-70
2023/01/09 12:11:23;;;;;;;;;;;22.00;99.90;;;;;;5053320;28;19966;-70
2023/01/09 12:14:08;;;;;;;;;;;21.90;99.90;;;;;;5062254;28;20292;-71
2023/01/09 12:16:49;;;;;;;;;;;21.90;99.90;;;;;;5054619;28;19913;-72
2023/01/09 12:19:36;;;;;;;;;;;21.90;99.90;;;;;;5057162;28;19921;-70
2023/01/09 12:22:06;;;;;;;;;;;21.90;99.90;;;;;;5060243;28;20297;-71
2023/01/09 12:24:36;;;;;;;;;;;21.80;99.90;;;;;;5053312;28;20362;-70
2023/01/09 12:27:08;;;;;;;;;;;21.80;99.90;;;;;;5063585;28;19920;-70
2023/01/09 12:29:53;;;;;;;;;;;21.80;99.90;;;;;;5061566;28;20352;-70
2023/01/09 12:32:23;;;;;;;;;;;21.80;99.90;;;;;;5072391;28;19909;-72
2023/01/09 12:35:11;;;;;;;;;;;21.70;99.90;;;;;;5053785;28;19916;-70
2023/01/09 12:37:56;;;;;;;;;;;21.70;99.90;;;;;;5051126;28;19924;-72
2023/01/09 12:40:26;;;;;;;;;;;21.70;99.90;;;;;;5063086;28;19935;-70
2023/01/09 12:42:56;;;;;;;;;;;21.70;99.90;;;;;;5080841;28;19917;-71
2023/01/09 12:45:31;;;;;;;;;;;21.70;99.90;;;;;;5075014;28;19908;-70
2023/01/09 12:48:16;;;;;;;;;;;21.70;99.90;;;;;;5058744;28;19927;-69
2023/01/09 12:51:01;;;;;;;;;;;21.70;99.90;;;;;;5069989;28;19912;-71
2023/01/09 12:53:30;;;;;;;;;;;21.70;99.90;;;;;;5073085;28;19920;-70
2023/01/09 12:56:03;;;;;;;;;;;21.70;99.90;;;;;;5060515;28;19999;-70
2023/01/09 12:58:32;;;;;;;;;;;21.60;99.90;;;;;;5058771;28;19913;-70
2023/01/09 13:01:02;;;;;;;;;;;21.60;99.90;;;;;;5059318;28;19936;-70
2023/01/09 13:03:28;;;;;;;;;;;21.50;99.90;;;;;;5079250;28;20372;-70
2023/01/09 13:05:56;;;;;;;;;;;21.60;99.90;;;;;;5075050;28;19943;-70
2023/01/09 13:08:29;;;;;;;;;;;21.60;99.90;;;;;;5072429;28;19943;-72
2023/01/09 13:11:15;;;;;;;;;;;21.50;99.90;;;;;;5075051;28;19915;-71
2023/01/09 13:14:01;;;;;;;;;;;21.50;99.90;;;;;;5081015;28;20015;-70
2023/01/09 13:16:40;;;;;;;;;;;21.50;99.90;;;;;;5093669;28;19939;-70
2023/01/09 13:19:13;;;;;;;;;;;21.50;99.90;;;;;;5068970;28;19912;-69
2023/01/09 13:21:40;;;;;;;;;;;21.40;99.90;;;;;;5071449;28;19951;-70
2023/01/09 13:24:12;;;;;;;;;;;21.40;99.90;;;;;;5082519;28;19915;-70
2023/01/09 13:26:42;;;;;;;;;;;21.40;99.90;;;;;;5070629;28;19955;-72
2023/01/09 13:29:11;;;;;;;;;;;21.40;99.90;;;;;;5066515;28;19920;-70
2023/01/09 13:31:56;;;;;;;;;;;21.30;99.90;;;;;;5072790;28;20333;-69
2023/01/09 13:34:25;;;;;;;;;;;21.40;99.90;;;;;;5084902;28;19967;-73
2023/01/09 13:36:53;;;;;;;;;;;21.30;99.90;;;;;;5084628;28;20384;-72
2023/01/09 13:39:26;;;;;;;;;;;21.30;99.90;;;;;;5073683;28;19920;-71
2023/01/09 13:44:49;;;;;;;;;;;21.20;99.90;;;;;;5078468;28;19919;-71
2023/01/09 13:47:18;;;;;;;;;;;21.20;99.90;;;;;;5089595;28;19915;-70
2023/01/09 13:50:04;;;;;;;;;;;21.20;99.90;;;;;;5079493;28;19923;-70
2023/01/09 13:52:37;;;;;;;;;;;21.10;99.90;;;;;;5074046;28;20041;-70
2023/01/09 13:55:22;;;;;;;;;;;21.10;99.90;;;;;;5067494;28;19957;-70
2023/01/09 13:58:13;;;;;;;;;;;21.10;99.90;;;;;;5077767;28;19916;-71
2023/01/09 14:00:40;;;;;;;;;;;21.00;99.90;;;;;;5074373;28;19916;-70
2023/01/09 14:03:22;;;;;;;;;;;20.90;99.90;;;;;;5090615;28;19912;-70
2023/01/09 14:05:48;;;;;;;;;;;20.90;99.90;;;;;;5084711;28;20269;-70
2023/01/09 14:08:17;;;;;;;;;;;20.80;99.90;;;;;;5069233;28;20353;-70
2023/01/09 14:10:44;;;;;;;;;;;20.80;99.90;;;;;;5081465;28;19919;-71
2023/01/09 14:13:24;;;;;;;;;;;20.80;99.90;;;;;;5074751;28;20389;-70
2023/01/09 14:15:52;;;;;;;;;;;20.80;99.90;;;;;;5064014;28;19909;-70
2023/01/09 14:18:27;;;;;;;;;;;20.70;99.90;;;;;;5069021;28;19917;-70
2023/01/09 14:20:55;;;;;;;;;;;20.70;99.90;;;;;;5070727;28;19912;-74
2023/01/09 14:23:23;;;;;;;;;;;20.60;99.90;;;;;;5077861;28;19999;-74
2023/01/09 14:25:50;;;;;;;;;;;20.60;99.90;;;;;;5052723;28;19912;-73
2023/01/09 14:28:25;;;;;;;;;;;20.60;99.90;;;;;;5054251;28;19920;-73
2023/01/09 14:30:52;;;;;;;;;;;20.60;99.90;;;;;;5053437;28;19920;-69
2023/01/09 14:33:18;;;;;;;;;;;20.60;99.90;;;;;;5054485;28;19916;-71
2023/01/09 14:35:54;;;;;;;;;;;20.50;99.90;;;;;;5064700;28;20002;-70
2023/01/09 14:38:38;;;;;;;;;;;20.50;99.90;;;;;;5083070;28;19912;-70
2023/01/09 14:41:05;;;;;;;;;;;20.40;99.90;;;;;;5076184;28;20338;-70
2023/01/09 14:43:52;;;;;;;;;;;20.40;99.90;;;;;;5086191;28;19908;-70
2023/01/09 14:46:19;;;;;;;;;;;20.40;99.90;;;;;;5073789;27;20039;-70
2023/01/09 14:49:04;;;;;;;;;;;20.40;99.90;;;;;;5081338;28;19908;-70